Impacts TAF Board INFO
FOR SITUATIONAL AWARENESS. NOT TO BE USED FOR FLIGHT PLANNING PURPOSES.
IDs:

KSEA - Seattle-Tacoma Intl, WA, US

Issued at 1402 UTC 19 Jan 2018
Updated at 1509 UTC 19 Jan 2018
Potential Impact None Slight Moderate High
Time<<20/16Z 20/17Z 20/18Z 20/19Z 20/20Z 20/21Z 20/22Z 20/23Z 21/00Z 21/01Z 21/02Z 21/03Z 21/04Z
Type PRVL PRVL
VIS >6 >6
CIG 12 12
Cover OVC OVC
FltCat MVFR MVFR
WX -SHRA -SHRA
WDir 190 190
WSpd 12 12
WGst 20 20

Raw TAF
KSEA 191402Z 1914/2018 18012KT P6SM VCSH SCT045 BKN070
  TEMPO 1914/1918 -SHRA BKN045
  FM192300 19012G20KT P6SM -SHRA BKN025 OVC040
  FM200300 19012G20KT P6SM -SHRA BKN012 OVC025


METAR Board
Radar Display
Forecast Discussion

FOR SITUATIONAL AWARENESS. NOT TO BE USED FOR FLIGHT PLANNING PURPOSES.